sensor_id;sensor_type;location;lat;lon;timestamp;P1;durP1;ratioP1;P2;durP2;ratioP2
55148;SDS011;49539;48.160;11.530;2024-03-29T00:00:20;3.20;;;1.10;;
55148;SDS011;49539;48.160;11.530;2024-03-29T00:02:45;1.52;;;0.88;;
55148;SDS011;49539;48.160;11.530;2024-03-29T00:05:10;1.55;;;0.80;;
55148;SDS011;49539;48.160;11.530;2024-03-29T00:07:36;0.95;;;0.63;;
55148;SDS011;49539;48.160;11.530;2024-03-29T00:10:01;1.65;;;0.70;;
55148;SDS011;49539;48.160;11.530;2024-03-29T00:12:26;0.65;;;0.55;;
55148;SDS011;49539;48.160;11.530;2024-03-29T00:14:51;1.38;;;0.52;;
55148;SDS011;49539;48.160;11.530;2024-03-29T00:17:17;1.27;;;0.65;;
55148;SDS011;49539;48.160;11.530;2024-03-29T00:19:43;0.77;;;0.60;;
55148;SDS011;49539;48.160;11.530;2024-03-29T00:22:08;2.33;;;0.77;;
55148;SDS011;49539;48.160;11.530;2024-03-29T00:24:34;0.43;;;0.43;;
55148;SDS011;49539;48.160;11.530;2024-03-29T00:26:59;1.08;;;0.60;;
55148;SDS011;49539;48.160;11.530;2024-03-29T00:29:24;0.65;;;0.50;;
55148;SDS011;49539;48.160;11.530;2024-03-29T00:31:52;1.73;;;0.80;;
55148;SDS011;49539;48.160;11.530;2024-03-29T00:34:17;0.63;;;0.50;;
55148;SDS011;49539;48.160;11.530;2024-03-29T00:36:42;0.70;;;0.50;;
55148;SDS011;49539;48.160;11.530;2024-03-29T00:39:08;2.03;;;0.75;;
55148;SDS011;49539;48.160;11.530;2024-03-29T00:41:36;0.60;;;0.50;;
55148;SDS011;49539;48.160;11.530;2024-03-29T00:44:01;1.40;;;0.55;;
55148;SDS011;49539;48.160;11.530;2024-03-29T00:46:27;0.60;;;0.60;;
55148;SDS011;49539;48.160;11.530;2024-03-29T00:48:52;0.50;;;0.40;;
55148;SDS011;49539;48.160;11.530;2024-03-29T00:51:17;1.38;;;0.60;;
55148;SDS011;49539;48.160;11.530;2024-03-29T00:53:43;1.88;;;0.80;;
55148;SDS011;49539;48.160;11.530;2024-03-29T00:56:08;0.60;;;0.60;;
55148;SDS011;49539;48.160;11.530;2024-03-29T00:58:33;1.10;;;0.60;;
55148;SDS011;49539;48.160;11.530;2024-03-29T01:00:58;0.80;;;0.50;;
55148;SDS011;49539;48.160;11.530;2024-03-29T01:03:24;2.00;;;0.85;;
55148;SDS011;49539;48.160;11.530;2024-03-29T01:05:49;0.90;;;0.60;;
55148;SDS011;49539;48.160;11.530;2024-03-29T01:08:14;1.30;;;0.70;;
55148;SDS011;49539;48.160;11.530;2024-03-29T01:10:40;2.13;;;0.60;;
55148;SDS011;49539;48.160;11.530;2024-03-29T01:13:05;0.93;;;0.60;;
55148;SDS011;49539;48.160;11.530;2024-03-29T01:15:30;0.52;;;0.47;;
55148;SDS011;49539;48.160;11.530;2024-03-29T01:17:56;0.40;;;0.40;;
55148;SDS011;49539;48.160;11.530;2024-03-29T01:20:21;1.33;;;0.70;;
55148;SDS011;49539;48.160;11.530;2024-03-29T01:22:46;0.98;;;0.50;;
55148;SDS011;49539;48.160;11.530;2024-03-29T01:25:12;0.50;;;0.40;;
55148;SDS011;49539;48.160;11.530;2024-03-29T01:27:38;0.75;;;0.63;;
55148;SDS011;49539;48.160;11.530;2024-03-29T01:30:04;0.95;;;0.60;;
55148;SDS011;49539;48.160;11.530;2024-03-29T01:32:29;1.48;;;0.52;;
55148;SDS011;49539;48.160;11.530;2024-03-29T01:34:54;2.00;;;0.60;;
55148;SDS011;49539;48.160;11.530;2024-03-29T01:37:20;0.88;;;0.75;;
55148;SDS011;49539;48.160;11.530;2024-03-29T01:39:45;1.45;;;0.82;;
55148;SDS011;49539;48.160;11.530;2024-03-29T01:42:10;2.40;;;0.60;;
55148;SDS011;49539;48.160;11.530;2024-03-29T01:44:36;1.10;;;0.50;;
55148;SDS011;49539;48.160;11.530;2024-03-29T01:47:01;0.98;;;0.63;;
55148;SDS011;49539;48.160;11.530;2024-03-29T01:49:27;0.68;;;0.43;;
55148;SDS011;49539;48.160;11.530;2024-03-29T01:51:52;0.50;;;0.50;;
55148;SDS011;49539;48.160;11.530;2024-03-29T01:54:18;0.50;;;0.50;;
55148;SDS011;49539;48.160;11.530;2024-03-29T01:56:43;0.57;;;0.40;;
55148;SDS011;49539;48.160;11.530;2024-03-29T01:59:12;0.63;;;0.57;;
55148;SDS011;49539;48.160;11.530;2024-03-29T02:01:40;1.02;;;0.57;;
55148;SDS011;49539;48.160;11.530;2024-03-29T02:04:05;0.82;;;0.55;;
55148;SDS011;49539;48.160;11.530;2024-03-29T02:06:31;0.50;;;0.43;;
55148;SDS011;49539;48.160;11.530;2024-03-29T02:08:57;0.43;;;0.40;;
55148;SDS011;49539;48.160;11.530;2024-03-29T02:11:22;0.63;;;0.55;;
55148;SDS011;49539;48.160;11.530;2024-03-29T02:13:48;1.13;;;0.63;;
55148;SDS011;49539;48.160;11.530;2024-03-29T02:16:14;0.50;;;0.50;;
55148;SDS011;49539;48.160;11.530;2024-03-29T02:18:39;0.57;;;0.40;;
55148;SDS011;49539;48.160;11.530;2024-03-29T02:21:05;0.50;;;0.50;;
55148;SDS011;49539;48.160;11.530;2024-03-29T02:23:31;0.50;;;0.50;;
55148;SDS011;49539;48.160;11.530;2024-03-29T02:25:57;0.88;;;0.60;;
55148;SDS011;49539;48.160;11.530;2024-03-29T02:28:23;0.50;;;0.40;;
55148;SDS011;49539;48.160;11.530;2024-03-29T02:30:49;0.82;;;0.50;;
55148;SDS011;49539;48.160;11.530;2024-03-29T02:33:14;0.55;;;0.50;;
55148;SDS011;49539;48.160;11.530;2024-03-29T02:35:40;0.63;;;0.50;;
55148;SDS011;49539;48.160;11.530;2024-03-29T02:38:05;1.20;;;0.50;;
55148;SDS011;49539;48.160;11.530;2024-03-29T02:40:30;0.40;;;0.40;;
55148;SDS011;49539;48.160;11.530;2024-03-29T02:42:55;0.63;;;0.50;;
55148;SDS011;49539;48.160;11.530;2024-03-29T02:45:21;0.80;;;0.50;;
55148;SDS011;49539;48.160;11.530;2024-03-29T02:47:46;0.73;;;0.45;;
55148;SDS011;49539;48.160;11.530;2024-03-29T02:50:12;0.98;;;0.50;;
55148;SDS011;49539;48.160;11.530;2024-03-29T02:52:38;0.77;;;0.45;;
55148;SDS011;49539;48.160;11.530;2024-03-29T02:55:03;0.63;;;0.50;;
55148;SDS011;49539;48.160;11.530;2024-03-29T02:57:29;1.00;;;0.50;;
55148;SDS011;49539;48.160;11.530;2024-03-29T02:59:54;0.52;;;0.40;;
55148;SDS011;49539;48.160;11.530;2024-03-29T03:02:19;0.73;;;0.52;;
55148;SDS011;49539;48.160;11.530;2024-03-29T03:04:44;0.88;;;0.68;;
55148;SDS011;49539;48.160;11.530;2024-03-29T03:07:10;2.08;;;0.50;;
55148;SDS011;49539;48.160;11.530;2024-03-29T03:09:54;0.50;;;0.50;;
55148;SDS011;49539;48.160;11.530;2024-03-29T03:12:38;0.95;;;0.55;;
55148;SDS011;49539;48.160;11.530;2024-03-29T03:15:03;0.32;;;0.32;;
55148;SDS011;49539;48.160;11.530;2024-03-29T03:17:29;0.98;;;0.80;;
55148;SDS011;49539;48.160;11.530;2024-03-29T03:19:54;1.27;;;0.60;;
55148;SDS011;49539;48.160;11.530;2024-03-29T03:22:19;0.77;;;0.57;;
55148;SDS011;49539;48.160;11.530;2024-03-29T03:24:45;0.80;;;0.57;;
55148;SDS011;49539;48.160;11.530;2024-03-29T03:27:10;0.90;;;0.60;;
55148;SDS011;49539;48.160;11.530;2024-03-29T03:29:35;0.52;;;0.47;;
55148;SDS011;49539;48.160;11.530;2024-03-29T03:32:01;1.40;;;0.82;;
55148;SDS011;49539;48.160;11.530;2024-03-29T03:34:26;0.68;;;0.60;;
55148;SDS011;49539;48.160;11.530;2024-03-29T03:36:52;0.95;;;0.63;;
55148;SDS011;49539;48.160;11.530;2024-03-29T03:39:17;1.58;;;0.63;;
55148;SDS011;49539;48.160;11.530;2024-03-29T03:41:42;0.90;;;0.52;;
55148;SDS011;49539;48.160;11.530;2024-03-29T03:44:07;0.32;;;0.32;;
55148;SDS011;49539;48.160;11.530;2024-03-29T03:46:33;1.63;;;0.60;;
55148;SDS011;49539;48.160;11.530;2024-03-29T03:48:58;0.43;;;0.43;;
55148;SDS011;49539;48.160;11.530;2024-03-29T03:51:23;1.25;;;0.60;;
55148;SDS011;49539;48.160;11.530;2024-03-29T03:53:49;2.05;;;0.50;;
55148;SDS011;49539;48.160;11.530;2024-03-29T03:56:14;1.63;;;0.70;;
55148;SDS011;49539;48.160;11.530;2024-03-29T03:58:39;0.60;;;0.50;;
55148;SDS011;49539;48.160;11.530;2024-03-29T04:01:05;1.73;;;0.60;;
55148;SDS011;49539;48.160;11.530;2024-03-29T04:03:31;1.02;;;0.60;;
55148;SDS011;49539;48.160;11.530;2024-03-29T04:05:56;1.10;;;0.50;;
55148;SDS011;49539;48.160;11.530;2024-03-29T04:08:22;1.65;;;0.63;;
55148;SDS011;49539;48.160;11.530;2024-03-29T04:10:47;2.63;;;0.68;;
55148;SDS011;49539;48.160;11.530;2024-03-29T04:13:12;0.50;;;0.50;;
55148;SDS011;49539;48.160;11.530;2024-03-29T04:15:38;0.95;;;0.60;;
55148;SDS011;49539;48.160;11.530;2024-03-29T04:18:03;1.33;;;0.73;;
55148;SDS011;49539;48.160;11.530;2024-03-29T04:20:28;0.77;;;0.77;;
55148;SDS011;49539;48.160;11.530;2024-03-29T04:22:54;1.13;;;0.70;;
55148;SDS011;49539;48.160;11.530;2024-03-29T04:25:19;1.02;;;0.70;;
55148;SDS011;49539;48.160;11.530;2024-03-29T04:27:44;1.65;;;0.93;;
55148;SDS011;49539;48.160;11.530;2024-03-29T04:30:10;2.00;;;0.80;;
55148;SDS011;49539;48.160;11.530;2024-03-29T04:32:35;1.20;;;0.65;;
55148;SDS011;49539;48.160;11.530;2024-03-29T04:35:00;0.93;;;0.60;;
55148;SDS011;49539;48.160;11.530;2024-03-29T04:37:26;2.03;;;0.55;;
55148;SDS011;49539;48.160;11.530;2024-03-29T04:39:51;1.02;;;0.65;;
55148;SDS011;49539;48.160;11.530;2024-03-29T04:42:17;1.98;;;0.95;;
55148;SDS011;49539;48.160;11.530;2024-03-29T04:44:42;2.92;;;0.85;;
55148;SDS011;49539;48.160;11.530;2024-03-29T04:47:07;0.80;;;0.60;;
55148;SDS011;49539;48.160;11.530;2024-03-29T04:49:33;2.42;;;1.10;;
55148;SDS011;49539;48.160;11.530;2024-03-29T04:52:00;1.10;;;0.77;;
55148;SDS011;49539;48.160;11.530;2024-03-29T04:54:25;2.42;;;1.00;;
55148;SDS011;49539;48.160;11.530;2024-03-29T04:56:51;0.75;;;0.70;;
55148;SDS011;49539;48.160;11.530;2024-03-29T04:59:16;1.30;;;0.77;;
55148;SDS011;49539;48.160;11.530;2024-03-29T05:01:43;1.00;;;0.70;;
55148;SDS011;49539;48.160;11.530;2024-03-29T05:04:15;1.13;;;0.80;;
55148;SDS011;49539;48.160;11.530;2024-03-29T05:06:43;1.60;;;0.88;;
55148;SDS011;49539;48.160;11.530;2024-03-29T05:09:09;1.30;;;0.80;;
55148;SDS011;49539;48.160;11.530;2024-03-29T05:11:36;1.08;;;0.70;;
55148;SDS011;49539;48.160;11.530;2024-03-29T05:14:02;2.05;;;0.90;;
55148;SDS011;49539;48.160;11.530;2024-03-29T05:16:29;1.65;;;0.90;;
55148;SDS011;49539;48.160;11.530;2024-03-29T05:18:54;1.75;;;1.20;;
55148;SDS011;49539;48.160;11.530;2024-03-29T05:21:19;2.65;;;1.10;;
55148;SDS011;49539;48.160;11.530;2024-03-29T05:23:44;1.38;;;1.10;;
55148;SDS011;49539;48.160;11.530;2024-03-29T05:26:10;1.75;;;1.13;;
55148;SDS011;49539;48.160;11.530;2024-03-29T05:28:35;1.70;;;0.80;;
55148;SDS011;49539;48.160;11.530;2024-03-29T05:31:10;2.08;;;1.13;;
55148;SDS011;49539;48.160;11.530;2024-03-29T05:33:36;1.55;;;1.08;;
55148;SDS011;49539;48.160;11.530;2024-03-29T05:36:02;0.95;;;0.85;;
55148;SDS011;49539;48.160;11.530;2024-03-29T05:38:30;2.45;;;0.80;;
55148;SDS011;49539;48.160;11.530;2024-03-29T05:40:55;1.67;;;0.90;;
55148;SDS011;49539;48.160;11.530;2024-03-29T05:43:20;1.60;;;0.90;;
55148;SDS011;49539;48.160;11.530;2024-03-29T05:45:46;1.80;;;1.10;;
55148;SDS011;49539;48.160;11.530;2024-03-29T05:48:11;3.95;;;0.98;;
55148;SDS011;49539;48.160;11.530;2024-03-29T05:50:36;0.82;;;0.73;;
55148;SDS011;49539;48.160;11.530;2024-03-29T05:53:01;1.00;;;0.77;;
55148;SDS011;49539;48.160;11.530;2024-03-29T05:55:27;1.48;;;0.80;;
55148;SDS011;49539;48.160;11.530;2024-03-29T05:57:52;1.83;;;1.15;;
55148;SDS011;49539;48.160;11.530;2024-03-29T06:00:17;1.02;;;0.70;;
55148;SDS011;49539;48.160;11.530;2024-03-29T06:02:43;1.73;;;1.00;;
55148;SDS011;49539;48.160;11.530;2024-03-29T06:05:13;1.60;;;0.90;;
55148;SDS011;49539;48.160;11.530;2024-03-29T06:07:38;2.20;;;1.13;;
55148;SDS011;49539;48.160;11.530;2024-03-29T06:10:03;2.00;;;1.20;;
55148;SDS011;49539;48.160;11.530;2024-03-29T06:12:31;1.35;;;0.98;;
55148;SDS011;49539;48.160;11.530;2024-03-29T06:14:56;1.83;;;0.85;;
55148;SDS011;49539;48.160;11.530;2024-03-29T06:17:54;1.92;;;1.00;;
55148;SDS011;49539;48.160;11.530;2024-03-29T06:20:19;0.98;;;0.73;;
55148;SDS011;49539;48.160;11.530;2024-03-29T06:22:44;1.02;;;0.75;;
55148;SDS011;49539;48.160;11.530;2024-03-29T06:25:10;3.90;;;1.25;;
55148;SDS011;49539;48.160;11.530;2024-03-29T06:27:35;0.77;;;0.70;;
55148;SDS011;49539;48.160;11.530;2024-03-29T06:30:01;3.10;;;0.93;;
55148;SDS011;49539;48.160;11.530;2024-03-29T06:32:27;2.08;;;1.05;;
55148;SDS011;49539;48.160;11.530;2024-03-29T06:34:54;1.52;;;0.88;;
55148;SDS011;49539;48.160;11.530;2024-03-29T06:37:19;1.77;;;1.00;;
55148;SDS011;49539;48.160;11.530;2024-03-29T06:39:50;1.50;;;0.90;;
55148;SDS011;49539;48.160;11.530;2024-03-29T06:42:15;1.75;;;0.90;;
55148;SDS011;49539;48.160;11.530;2024-03-29T06:44:41;1.25;;;0.73;;
55148;SDS011;49539;48.160;11.530;2024-03-29T06:47:07;1.73;;;0.98;;
55148;SDS011;49539;48.160;11.530;2024-03-29T06:49:32;1.45;;;0.88;;
55148;SDS011;49539;48.160;11.530;2024-03-29T06:51:58;1.80;;;1.00;;
55148;SDS011;49539;48.160;11.530;2024-03-29T06:54:25;2.13;;;0.90;;
55148;SDS011;49539;48.160;11.530;2024-03-29T06:56:55;1.52;;;0.85;;
55148;SDS011;49539;48.160;11.530;2024-03-29T06:59:20;2.15;;;0.77;;
55148;SDS011;49539;48.160;11.530;2024-03-29T07:01:46;2.05;;;0.85;;
55148;SDS011;49539;48.160;11.530;2024-03-29T07:04:20;1.95;;;0.93;;
55148;SDS011;49539;48.160;11.530;2024-03-29T07:06:45;0.93;;;0.75;;
55148;SDS011;49539;48.160;11.530;2024-03-29T07:09:13;1.58;;;1.15;;
55148;SDS011;49539;48.160;11.530;2024-03-29T07:11:38;1.17;;;0.68;;
55148;SDS011;49539;48.160;11.530;2024-03-29T07:14:04;2.40;;;0.80;;
55148;SDS011;49539;48.160;11.530;2024-03-29T07:16:30;2.85;;;1.00;;
55148;SDS011;49539;48.160;11.530;2024-03-29T07:18:55;1.85;;;0.90;;
55148;SDS011;49539;48.160;11.530;2024-03-29T07:21:20;1.20;;;0.68;;
55148;SDS011;49539;48.160;11.530;2024-03-29T07:23:46;2.28;;;0.60;;
55148;SDS011;49539;48.160;11.530;2024-03-29T07:26:11;1.77;;;0.70;;
55148;SDS011;49539;48.160;11.530;2024-03-29T07:28:37;0.80;;;0.60;;
55148;SDS011;49539;48.160;11.530;2024-03-29T07:31:05;2.33;;;0.70;;
55148;SDS011;49539;48.160;11.530;2024-03-29T07:33:32;3.38;;;1.35;;
55148;SDS011;49539;48.160;11.530;2024-03-29T07:35:57;1.33;;;0.75;;
55148;SDS011;49539;48.160;11.530;2024-03-29T07:38:23;1.35;;;0.60;;
55148;SDS011;49539;48.160;11.530;2024-03-29T07:40:48;1.27;;;0.55;;
55148;SDS011;49539;48.160;11.530;2024-03-29T07:43:14;0.65;;;0.40;;
55148;SDS011;49539;48.160;11.530;2024-03-29T07:45:40;1.23;;;0.60;;
55148;SDS011;49539;48.160;11.530;2024-03-29T07:48:06;1.83;;;0.55;;
55148;SDS011;49539;48.160;11.530;2024-03-29T07:50:31;0.80;;;0.63;;
55148;SDS011;49539;48.160;11.530;2024-03-29T07:52:56;1.60;;;0.98;;
55148;SDS011;49539;48.160;11.530;2024-03-29T07:55:22;0.90;;;0.60;;
55148;SDS011;49539;48.160;11.530;2024-03-29T07:57:47;1.02;;;0.43;;
55148;SDS011;49539;48.160;11.530;2024-03-29T08:00:13;1.05;;;0.60;;
55148;SDS011;49539;48.160;11.530;2024-03-29T08:02:38;0.82;;;0.73;;
55148;SDS011;49539;48.160;11.530;2024-03-29T08:05:05;1.48;;;0.50;;
55148;SDS011;49539;48.160;11.530;2024-03-29T08:07:34;1.63;;;0.60;;
55148;SDS011;49539;48.160;11.530;2024-03-29T08:09:59;1.20;;;0.85;;
55148;SDS011;49539;48.160;11.530;2024-03-29T08:12:24;2.80;;;0.73;;
55148;SDS011;49539;48.160;11.530;2024-03-29T08:14:50;1.20;;;0.40;;
55148;SDS011;49539;48.160;11.530;2024-03-29T08:17:15;0.70;;;0.45;;
55148;SDS011;49539;48.160;11.530;2024-03-29T08:19:41;0.65;;;0.43;;
55148;SDS011;49539;48.160;11.530;2024-03-29T08:22:09;0.73;;;0.60;;
55148;SDS011;49539;48.160;11.530;2024-03-29T08:24:38;0.63;;;0.40;;
55148;SDS011;49539;48.160;11.530;2024-03-29T08:27:04;2.47;;;0.55;;
55148;SDS011;49539;48.160;11.530;2024-03-29T08:29:29;0.98;;;0.50;;
55148;SDS011;49539;48.160;11.530;2024-03-29T08:31:54;0.70;;;0.50;;
55148;SDS011;49539;48.160;11.530;2024-03-29T08:34:20;1.20;;;0.55;;
55148;SDS011;49539;48.160;11.530;2024-03-29T08:36:45;2.17;;;0.63;;
55148;SDS011;49539;48.160;11.530;2024-03-29T08:39:10;1.17;;;0.65;;
55148;SDS011;49539;48.160;11.530;2024-03-29T08:41:36;0.63;;;0.40;;
55148;SDS011;49539;48.160;11.530;2024-03-29T08:44:02;0.40;;;0.40;;
55148;SDS011;49539;48.160;11.530;2024-03-29T08:46:27;1.63;;;0.43;;
55148;SDS011;49539;48.160;11.530;2024-03-29T08:48:53;3.42;;;0.50;;
55148;SDS011;49539;48.160;11.530;2024-03-29T08:51:20;0.50;;;0.47;;
55148;SDS011;49539;48.160;11.530;2024-03-29T08:53:45;1.30;;;0.60;;
55148;SDS011;49539;48.160;11.530;2024-03-29T08:56:11;1.17;;;0.50;;
55148;SDS011;49539;48.160;11.530;2024-03-29T08:58:37;1.35;;;0.60;;
55148;SDS011;49539;48.160;11.530;2024-03-29T09:01:03;0.73;;;0.50;;
55148;SDS011;49539;48.160;11.530;2024-03-29T09:03:29;1.10;;;0.55;;
55148;SDS011;49539;48.160;11.530;2024-03-29T09:05:55;1.40;;;0.73;;
55148;SDS011;49539;48.160;11.530;2024-03-29T09:08:20;0.52;;;0.22;;
55148;SDS011;49539;48.160;11.530;2024-03-29T09:10:45;0.82;;;0.40;;
55148;SDS011;49539;48.160;11.530;2024-03-29T09:13:11;2.00;;;0.32;;
55148;SDS011;49539;48.160;11.530;2024-03-29T09:15:37;0.90;;;0.50;;
55148;SDS011;49539;48.160;11.530;2024-03-29T09:18:02;0.45;;;0.40;;
55148;SDS011;49539;48.160;11.530;2024-03-29T09:20:35;0.63;;;0.30;;
55148;SDS011;49539;48.160;11.530;2024-03-29T09:23:00;1.00;;;0.40;;
55148;SDS011;49539;48.160;11.530;2024-03-29T09:25:25;1.23;;;0.45;;
55148;SDS011;49539;48.160;11.530;2024-03-29T09:27:51;0.45;;;0.38;;
55148;SDS011;49539;48.160;11.530;2024-03-29T09:30:16;0.30;;;0.30;;
55148;SDS011;49539;48.160;11.530;2024-03-29T09:32:43;0.63;;;0.30;;
55148;SDS011;49539;48.160;11.530;2024-03-29T09:35:09;0.30;;;0.30;;
55148;SDS011;49539;48.160;11.530;2024-03-29T09:37:34;0.25;;;0.25;;
55148;SDS011;49539;48.160;11.530;2024-03-29T09:40:04;1.90;;;0.75;;
55148;SDS011;49539;48.160;11.530;2024-03-29T09:42:31;1.17;;;0.30;;
55148;SDS011;49539;48.160;11.530;2024-03-29T09:44:57;2.97;;;0.65;;
55148;SDS011;49539;48.160;11.530;2024-03-29T09:47:23;0.38;;;0.30;;
55148;SDS011;49539;48.160;11.530;2024-03-29T09:49:50;0.65;;;0.40;;
55148;SDS011;49539;48.160;11.530;2024-03-29T09:52:16;0.70;;;0.50;;
55148;SDS011;49539;48.160;11.530;2024-03-29T09:54:41;0.50;;;0.35;;
55148;SDS011;49539;48.160;11.530;2024-03-29T09:57:07;0.60;;;0.30;;
55148;SDS011;49539;48.160;11.530;2024-03-29T09:59:33;0.77;;;0.52;;
55148;SDS011;49539;48.160;11.530;2024-03-29T10:02:00;2.47;;;0.40;;
55148;SDS011;49539;48.160;11.530;2024-03-29T10:04:25;0.98;;;0.43;;
55148;SDS011;49539;48.160;11.530;2024-03-29T10:06:52;0.55;;;0.40;;
55148;SDS011;49539;48.160;11.530;2024-03-29T10:09:19;0.30;;;0.30;;
55148;SDS011;49539;48.160;11.530;2024-03-29T10:11:45;0.60;;;0.40;;
55148;SDS011;49539;48.160;11.530;2024-03-29T10:14:11;0.85;;;0.30;;
55148;SDS011;49539;48.160;11.530;2024-03-29T10:16:36;0.50;;;0.30;;
55148;SDS011;49539;48.160;11.530;2024-03-29T10:19:02;2.20;;;0.40;;
55148;SDS011;49539;48.160;11.530;2024-03-29T10:21:27;1.85;;;0.52;;
55148;SDS011;49539;48.160;11.530;2024-03-29T10:23:53;0.73;;;0.30;;
55148;SDS011;49539;48.160;11.530;2024-03-29T10:26:18;1.35;;;0.52;;
55148;SDS011;49539;48.160;11.530;2024-03-29T10:28:43;0.63;;;0.40;;
55148;SDS011;49539;48.160;11.530;2024-03-29T10:31:09;0.43;;;0.30;;
55148;SDS011;49539;48.160;11.530;2024-03-29T10:33:34;3.38;;;0.85;;
55148;SDS011;49539;48.160;11.530;2024-03-29T10:36:00;0.77;;;0.40;;
55148;SDS011;49539;48.160;11.530;2024-03-29T10:38:26;1.90;;;0.80;;
55148;SDS011;49539;48.160;11.530;2024-03-29T10:40:52;1.33;;;0.70;;
55148;SDS011;49539;48.160;11.530;2024-03-29T10:43:17;1.60;;;0.60;;
55148;SDS011;49539;48.160;11.530;2024-03-29T10:45:44;0.80;;;0.30;;
55148;SDS011;49539;48.160;11.530;2024-03-29T10:48:11;1.20;;;0.47;;
55148;SDS011;49539;48.160;11.530;2024-03-29T10:50:40;2.90;;;0.57;;
55148;SDS011;49539;48.160;11.530;2024-03-29T10:53:07;2.50;;;0.47;;
55148;SDS011;49539;48.160;11.530;2024-03-29T10:55:33;0.60;;;0.40;;
55148;SDS011;49539;48.160;11.530;2024-03-29T10:58:00;1.45;;;0.50;;
55148;SDS011;49539;48.160;11.530;2024-03-29T11:00:25;0.50;;;0.38;;
55148;SDS011;49539;48.160;11.530;2024-03-29T11:03:05;0.50;;;0.30;;
55148;SDS011;49539;48.160;11.530;2024-03-29T11:05:32;0.70;;;0.30;;
55148;SDS011;49539;48.160;11.530;2024-03-29T11:07:58;0.85;;;0.43;;
55148;SDS011;49539;48.160;11.530;2024-03-29T11:10:45;0.57;;;0.25;;
55148;SDS011;49539;48.160;11.530;2024-03-29T11:15:40;2.05;;;0.50;;
55148;SDS011;49539;48.160;11.530;2024-03-29T11:18:07;0.80;;;0.40;;
55148;SDS011;49539;48.160;11.530;2024-03-29T11:20:32;1.55;;;0.30;;
55148;SDS011;49539;48.160;11.530;2024-03-29T11:23:02;0.80;;;0.30;;
55148;SDS011;49539;48.160;11.530;2024-03-29T11:28:08;1.23;;;0.40;;
55148;SDS011;49539;48.160;11.530;2024-03-29T11:30:41;2.22;;;0.63;;
55148;SDS011;49539;48.160;11.530;2024-03-29T11:33:07;1.45;;;0.40;;
55148;SDS011;49539;48.160;11.530;2024-03-29T11:35:32;2.97;;;0.45;;
55148;SDS011;49539;48.160;11.530;2024-03-29T11:38:01;0.90;;;0.35;;
55148;SDS011;49539;48.160;11.530;2024-03-29T11:40:30;1.23;;;0.30;;
55148;SDS011;49539;48.160;11.530;2024-03-29T11:42:55;0.65;;;0.35;;
55148;SDS011;49539;48.160;11.530;2024-03-29T11:45:20;1.02;;;0.50;;
55148;SDS011;49539;48.160;11.530;2024-03-29T11:47:46;0.20;;;0.20;;
55148;SDS011;49539;48.160;11.530;2024-03-29T11:50:12;0.40;;;0.30;;
55148;SDS011;49539;48.160;11.530;2024-03-29T11:52:39;0.50;;;0.28;;
55148;SDS011;49539;48.160;11.530;2024-03-29T11:55:04;0.95;;;0.20;;
55148;SDS011;49539;48.160;11.530;2024-03-29T11:57:30;0.65;;;0.22;;
55148;SDS011;49539;48.160;11.530;2024-03-29T11:59:56;0.47;;;0.30;;
55148;SDS011;49539;48.160;11.530;2024-03-29T12:02:21;0.52;;;0.32;;
55148;SDS011;49539;48.160;11.530;2024-03-29T12:04:47;2.80;;;0.63;;
55148;SDS011;49539;48.160;11.530;2024-03-29T12:07:12;0.55;;;0.30;;
55148;SDS011;49539;48.160;11.530;2024-03-29T12:09:38;1.55;;;0.35;;
55148;SDS011;49539;48.160;11.530;2024-03-29T12:12:06;3.30;;;0.30;;
55148;SDS011;49539;48.160;11.530;2024-03-29T12:14:35;0.73;;;0.30;;
55148;SDS011;49539;48.160;11.530;2024-03-29T12:17:08;0.88;;;0.38;;
55148;SDS011;49539;48.160;11.530;2024-03-29T12:19:34;0.40;;;0.20;;
55148;SDS011;49539;48.160;11.530;2024-03-29T12:22:03;0.40;;;0.30;;
55148;SDS011;49539;48.160;11.530;2024-03-29T12:24:28;6.18;;;0.50;;
55148;SDS011;49539;48.160;11.530;2024-03-29T12:26:53;0.98;;;0.50;;
55148;SDS011;49539;48.160;11.530;2024-03-29T12:29:20;0.80;;;0.28;;
55148;SDS011;49539;48.160;11.530;2024-03-29T12:31:55;0.50;;;0.20;;
55148;SDS011;49539;48.160;11.530;2024-03-29T12:34:21;0.95;;;0.20;;
55148;SDS011;49539;48.160;11.530;2024-03-29T12:36:47;0.52;;;0.20;;
55148;SDS011;49539;48.160;11.530;2024-03-29T12:39:12;0.45;;;0.32;;
55148;SDS011;49539;48.160;11.530;2024-03-29T12:41:38;0.35;;;0.30;;
55148;SDS011;49539;48.160;11.530;2024-03-29T12:44:03;0.40;;;0.17;;
55148;SDS011;49539;48.160;11.530;2024-03-29T12:46:28;0.40;;;0.20;;
55148;SDS011;49539;48.160;11.530;2024-03-29T12:48:58;0.63;;;0.20;;
55148;SDS011;49539;48.160;11.530;2024-03-29T12:51:23;0.95;;;0.28;;
55148;SDS011;49539;48.160;11.530;2024-03-29T12:53:48;0.20;;;0.20;;
55148;SDS011;49539;48.160;11.530;2024-03-29T12:56:14;0.40;;;0.20;;
55148;SDS011;49539;48.160;11.530;2024-03-29T12:58:39;0.22;;;0.20;;
55148;SDS011;49539;48.160;11.530;2024-03-29T13:01:04;1.63;;;0.20;;
55148;SDS011;49539;48.160;11.530;2024-03-29T13:03:31;0.40;;;0.20;;
55148;SDS011;49539;48.160;11.530;2024-03-29T13:05:57;0.40;;;0.30;;
55148;SDS011;49539;48.160;11.530;2024-03-29T13:08:22;0.52;;;0.20;;
55148;SDS011;49539;48.160;11.530;2024-03-29T13:10:47;0.38;;;0.20;;
55148;SDS011;49539;48.160;11.530;2024-03-29T13:13:13;0.35;;;0.20;;
55148;SDS011;49539;48.160;11.530;2024-03-29T13:15:38;0.20;;;0.10;;
55148;SDS011;49539;48.160;11.530;2024-03-29T13:18:04;0.20;;;0.20;;
55148;SDS011;49539;48.160;11.530;2024-03-29T13:20:30;0.10;;;0.10;;
55148;SDS011;49539;48.160;11.530;2024-03-29T13:22:57;0.10;;;0.10;;
55148;SDS011;49539;48.160;11.530;2024-03-29T13:25:23;2.63;;;0.20;;
55148;SDS011;49539;48.160;11.530;2024-03-29T13:27:49;0.20;;;0.10;;
55148;SDS011;49539;48.160;11.530;2024-03-29T13:30:14;0.10;;;0.10;;
55148;SDS011;49539;48.160;11.530;2024-03-29T13:32:41;0.28;;;0.20;;
55148;SDS011;49539;48.160;11.530;2024-03-29T13:35:06;0.13;;;0.10;;
55148;SDS011;49539;48.160;11.530;2024-03-29T13:37:35;0.93;;;0.30;;
55148;SDS011;49539;48.160;11.530;2024-03-29T13:40:00;0.20;;;0.10;;
55148;SDS011;49539;48.160;11.530;2024-03-29T13:42:25;0.10;;;0.10;;
55148;SDS011;49539;48.160;11.530;2024-03-29T13:44:51;0.15;;;0.10;;
55148;SDS011;49539;48.160;11.530;2024-03-29T13:47:17;0.10;;;0.10;;
55148;SDS011;49539;48.160;11.530;2024-03-29T13:49:43;0.22;;;0.10;;
55148;SDS011;49539;48.160;11.530;2024-03-29T13:52:08;0.13;;;0.10;;
55148;SDS011;49539;48.160;11.530;2024-03-29T13:54:34;0.20;;;0.10;;
55148;SDS011;49539;48.160;11.530;2024-03-29T13:57:00;0.10;;;0.10;;
55148;SDS011;49539;48.160;11.530;2024-03-29T13:59:26;0.20;;;0.10;;
55148;SDS011;49539;48.160;11.530;2024-03-29T14:01:52;0.10;;;0.10;;
55148;SDS011;49539;48.160;11.530;2024-03-29T14:04:17;1.55;;;0.20;;
55148;SDS011;49539;48.160;11.530;2024-03-29T14:06:42;0.10;;;0.10;;
55148;SDS011;49539;48.160;11.530;2024-03-29T14:09:08;0.10;;;0.10;;
55148;SDS011;49539;48.160;11.530;2024-03-29T14:11:33;0.45;;;0.13;;
55148;SDS011;49539;48.160;11.530;2024-03-29T14:13:58;0.20;;;0.10;;
55148;SDS011;49539;48.160;11.530;2024-03-29T14:16:24;1.05;;;0.20;;
55148;SDS011;49539;48.160;11.530;2024-03-29T14:18:49;1.85;;;0.20;;
55148;SDS011;49539;48.160;11.530;2024-03-29T14:21:14;0.10;;;0.10;;
55148;SDS011;49539;48.160;11.530;2024-03-29T14:23:40;0.22;;;0.20;;
55148;SDS011;49539;48.160;11.530;2024-03-29T14:26:06;0.55;;;0.20;;
55148;SDS011;49539;48.160;11.530;2024-03-29T14:28:31;0.47;;;0.20;;
55148;SDS011;49539;48.160;11.530;2024-03-29T14:30:56;0.10;;;0.10;;